createdAt,value
2022-12-25T00:00:20.870Z,2.83
2022-12-25T00:02:50.530Z,2.77
2022-12-25T00:05:18.638Z,3.00
2022-12-25T00:07:46.550Z,2.50
2022-12-25T00:10:14.399Z,2.60
2022-12-25T00:12:42.241Z,2.47
2022-12-25T00:15:10.703Z,2.13
2022-12-25T00:17:38.577Z,2.20
2022-12-25T00:20:09.509Z,2.97
2022-12-25T00:22:37.448Z,3.00
2022-12-25T00:25:06.204Z,2.90
2022-12-25T00:27:34.796Z,2.80
2022-12-25T00:30:02.797Z,2.07
2022-12-25T00:32:36.094Z,2.40
2022-12-25T00:35:05.020Z,2.27
2022-12-25T00:37:34.396Z,1.80
2022-12-25T00:40:02.271Z,1.80
2022-12-25T00:42:30.125Z,1.90
2022-12-25T00:44:58.090Z,2.10
2022-12-25T00:47:26.054Z,1.90
2022-12-25T00:49:53.937Z,1.97
2022-12-25T00:52:21.792Z,1.90
2022-12-25T00:54:51.079Z,2.10
2022-12-25T00:57:19.783Z,2.00
2022-12-25T00:59:47.673Z,1.90
2022-12-25T01:02:25.264Z,2.10
2022-12-25T01:04:55.453Z,2.17
2022-12-25T01:07:25.276Z,1.80
2022-12-25T01:10:12.211Z,1.80
2022-12-25T01:12:42.312Z,2.07
2022-12-25T01:15:12.209Z,1.70
2022-12-25T01:17:40.103Z,1.70
2022-12-25T01:20:09.195Z,1.80
2022-12-25T01:22:37.110Z,1.70
2022-12-25T01:25:07.135Z,1.97
2022-12-25T01:27:35.010Z,1.83
2022-12-25T01:30:02.866Z,1.83
2022-12-25T01:32:30.677Z,2.00
2022-12-25T01:34:58.506Z,1.70
2022-12-25T01:37:26.815Z,1.93
2022-12-25T01:39:54.801Z,2.00
2022-12-25T01:42:24.700Z,1.80
2022-12-25T01:45:38.736Z,1.50
2022-12-25T01:48:12.821Z,1.70
2022-12-25T01:50:44.230Z,1.60
2022-12-25T01:53:12.885Z,1.80
2022-12-25T01:55:42.652Z,1.73
2022-12-25T01:58:11.959Z,1.80
2022-12-25T02:00:40.010Z,1.80
2022-12-25T02:03:08.053Z,1.50
2022-12-25T02:05:36.450Z,1.70
2022-12-25T02:08:09.453Z,1.70
2022-12-25T02:10:38.820Z,1.57
2022-12-25T02:13:07.801Z,1.57
2022-12-25T02:15:44.597Z,1.70
2022-12-25T02:18:20.668Z,1.60
2022-12-25T02:21:09.728Z,1.63
2022-12-25T02:23:56.611Z,1.60
2022-12-25T02:26:38.661Z,1.53
2022-12-25T02:29:17.332Z,1.70
2022-12-25T02:31:55.042Z,1.80
2022-12-25T02:34:33.770Z,1.80
2022-12-25T02:37:08.192Z,1.60
2022-12-25T02:40:00.539Z,1.70
2022-12-25T02:42:52.961Z,1.73
2022-12-25T02:45:44.725Z,2.00
2022-12-25T02:48:31.909Z,1.80
2022-12-25T02:54:35.401Z,2.03
2022-12-25T02:57:25.633Z,1.80
2022-12-25T03:00:14.821Z,2.20
2022-12-25T03:03:03.483Z,2.00
2022-12-25T03:05:52.061Z,2.10
2022-12-25T03:08:24.814Z,2.17
2022-12-25T03:11:18.487Z,2.30
2022-12-25T03:13:51.010Z,2.07
2022-12-25T03:16:37.038Z,1.90
2022-12-25T03:19:27.002Z,2.03
2022-12-25T03:22:14.203Z,2.07
2022-12-25T03:25:00.064Z,1.90
2022-12-25T03:27:32.791Z,2.10
2022-12-25T03:30:18.009Z,2.33
2022-12-25T03:32:58.600Z,1.80
2022-12-25T03:35:43.310Z,1.90
2022-12-25T03:38:40.220Z,1.70
2022-12-25T03:41:33.653Z,1.70
2022-12-25T03:44:27.205Z,1.60
2022-12-25T03:47:19.974Z,1.90
2022-12-25T03:50:11.595Z,1.77
2022-12-25T03:52:58.549Z,1.70
2022-12-25T03:55:44.836Z,1.83
2022-12-25T03:58:36.651Z,1.57
2022-12-25T04:01:18.508Z,1.83
2022-12-25T04:04:03.761Z,1.90
2022-12-25T04:06:48.084Z,1.80
2022-12-25T04:09:34.929Z,1.80
2022-12-25T04:12:20.262Z,1.30
2022-12-25T04:15:06.610Z,1.73
2022-12-25T04:17:52.051Z,1.73
2022-12-25T04:20:37.542Z,1.47
2022-12-25T04:23:23.437Z,1.70
2022-12-25T04:26:10.077Z,1.67
2022-12-25T04:28:55.255Z,1.60
2022-12-25T04:31:40.613Z,1.40
2022-12-25T04:34:34.461Z,1.57
2022-12-25T04:37:02.280Z,1.73
2022-12-25T04:39:30.152Z,1.90
2022-12-25T04:42:00.932Z,1.80
2022-12-25T04:44:28.829Z,1.90
2022-12-25T04:46:56.812Z,2.00
2022-12-25T04:49:24.646Z,1.80
2022-12-25T04:51:52.464Z,1.93
2022-12-25T04:54:20.291Z,1.80
2022-12-25T04:56:48.121Z,1.67
2022-12-25T04:59:18.408Z,1.60
2022-12-25T05:01:46.379Z,1.80
2022-12-25T05:04:14.405Z,1.50
2022-12-25T05:06:42.375Z,1.53
2022-12-25T05:09:11.114Z,1.60
2022-12-25T05:11:39.094Z,1.43
2022-12-25T05:14:06.963Z,1.53
2022-12-25T05:16:36.231Z,1.90
2022-12-25T05:19:04.124Z,1.70
2022-12-25T05:21:31.982Z,1.80
2022-12-25T05:23:59.930Z,1.70
2022-12-25T05:26:28.276Z,1.40
2022-12-25T05:28:56.186Z,1.80
2022-12-25T05:31:24.131Z,1.60
2022-12-25T05:33:53.717Z,1.93
2022-12-25T05:36:21.631Z,1.60
2022-12-25T05:38:49.525Z,1.73
2022-12-25T05:41:17.554Z,1.53
2022-12-25T05:43:45.493Z,1.60
2022-12-25T05:46:14.568Z,1.50
2022-12-25T05:48:42.792Z,1.60
2022-12-25T05:51:13.988Z,1.60
2022-12-25T05:53:42.699Z,1.93
2022-12-25T05:56:11.034Z,1.87
2022-12-25T05:58:40.136Z,1.53
2022-12-25T06:01:12.115Z,1.60
2022-12-25T06:03:40.154Z,1.60
2022-12-25T06:06:08.455Z,1.80
2022-12-25T06:08:38.263Z,1.77
2022-12-25T06:11:07.849Z,1.97
2022-12-25T06:13:36.791Z,1.70
2022-12-25T06:16:05.957Z,1.93
2022-12-25T06:18:36.579Z,1.70
2022-12-25T06:21:07.732Z,1.57
2022-12-25T06:23:37.280Z,1.87
2022-12-25T06:26:06.803Z,1.73
2022-12-25T06:28:34.658Z,1.60
2022-12-25T06:31:07.401Z,1.60
2022-12-25T06:33:35.844Z,1.63
2022-12-25T06:36:07.550Z,1.60
2022-12-25T06:38:35.777Z,1.70
2022-12-25T06:41:10.604Z,1.90
2022-12-25T06:43:39.263Z,1.60
2022-12-25T06:46:08.666Z,1.50
2022-12-25T06:48:37.268Z,1.80
2022-12-25T06:51:05.813Z,1.70
2022-12-25T06:53:40.292Z,1.50
2022-12-25T06:56:15.374Z,1.73
2022-12-25T06:58:44.349Z,1.50
2022-12-25T07:01:18.260Z,1.60
2022-12-25T07:03:47.639Z,2.20
2022-12-25T07:06:16.073Z,1.83
2022-12-25T07:08:43.887Z,2.00
2022-12-25T07:11:13.301Z,7.90
2022-12-25T07:13:41.083Z,6.50
2022-12-25T07:16:09.334Z,2.93
2022-12-25T07:18:37.273Z,2.10
2022-12-25T07:21:09.783Z,3.87
2022-12-25T07:23:37.727Z,2.87
2022-12-25T07:26:06.117Z,2.13
2022-12-25T07:28:36.260Z,2.10
2022-12-25T07:31:06.214Z,2.93
2022-12-25T07:33:34.936Z,4.07
2022-12-25T07:36:03.473Z,2.90
2022-12-25T07:38:31.636Z,2.33
2022-12-25T07:40:59.477Z,2.27
2022-12-25T07:43:27.696Z,2.10
2022-12-25T07:45:58.002Z,1.60
2022-12-25T07:48:26.157Z,1.90
2022-12-25T07:50:58.203Z,1.60
2022-12-25T07:53:26.463Z,1.40
2022-12-25T07:55:58.803Z,1.27
2022-12-25T07:58:26.942Z,1.10
2022-12-25T08:00:54.901Z,1.43
2022-12-25T08:03:24.302Z,1.53
2022-12-25T08:05:52.269Z,1.67
2022-12-25T08:08:20.170Z,1.60
2022-12-25T08:10:48.635Z,1.37
2022-12-25T08:13:16.428Z,1.60
2022-12-25T08:15:44.398Z,1.63
2022-12-25T08:18:13.145Z,1.43
2022-12-25T08:20:42.669Z,1.60
2022-12-25T08:23:10.583Z,2.00
2022-12-25T08:25:39.003Z,1.60
2022-12-25T08:28:06.793Z,1.60
2022-12-25T08:30:34.793Z,1.40
2022-12-25T08:33:02.780Z,1.67
2022-12-25T08:35:30.641Z,3.27
2022-12-25T08:37:59.788Z,1.50
2022-12-25T08:40:28.074Z,10.17
2022-12-25T08:42:57.491Z,2.97
2022-12-25T08:45:29.809Z,1.53
2022-12-25T08:48:00.683Z,1.57
2022-12-25T08:50:28.542Z,5.30
2022-12-25T08:52:56.352Z,2.13
2022-12-25T08:55:25.616Z,1.23
2022-12-25T08:57:54.293Z,1.70
2022-12-25T09:00:46.224Z,3.60
2022-12-25T09:03:14.095Z,2.50
2022-12-25T09:05:42.066Z,1.70
2022-12-25T09:08:09.988Z,1.50
2022-12-25T09:10:39.303Z,1.20
2022-12-25T09:13:10.680Z,1.17
2022-12-25T09:15:39.546Z,1.30
2022-12-25T09:18:07.741Z,1.17
2022-12-25T09:20:35.584Z,1.10
2022-12-25T09:23:07.219Z,3.63
2022-12-25T09:25:39.245Z,2.00
2022-12-25T09:28:07.223Z,4.03
2022-12-25T09:30:35.099Z,1.47
2022-12-25T09:33:02.884Z,2.00
2022-12-25T09:35:30.667Z,1.43
2022-12-25T09:37:58.593Z,2.87
2022-12-25T09:40:30.184Z,1.60
2022-12-25T09:43:00.177Z,1.40
2022-12-25T09:45:32.862Z,6.77
2022-12-25T09:48:01.067Z,2.30
2022-12-25T09:50:43.490Z,3.73
2022-12-25T09:53:16.915Z,1.77
2022-12-25T09:55:49.751Z,1.70
2022-12-25T09:58:18.917Z,1.50
2022-12-25T10:00:52.324Z,2.00
2022-12-25T10:03:37.529Z,1.40
2022-12-25T10:06:18.335Z,1.60
2022-12-25T10:09:11.332Z,1.93
2022-12-25T10:11:54.103Z,1.93
2022-12-25T10:14:28.386Z,3.60
2022-12-25T10:17:15.178Z,1.60
2022-12-25T10:19:52.891Z,1.60
2022-12-25T10:22:27.940Z,2.00
2022-12-25T10:24:59.073Z,1.33
2022-12-25T10:27:35.644Z,1.40
2022-12-25T10:30:14.405Z,1.10
2022-12-25T10:32:42.502Z,1.30
2022-12-25T10:35:13.153Z,1.10
2022-12-25T10:37:42.053Z,1.07
2022-12-25T10:40:27.646Z,1.50
2022-12-25T10:42:59.954Z,1.60
2022-12-25T10:45:29.096Z,1.30
2022-12-25T10:48:07.775Z,1.20
2022-12-25T10:50:43.407Z,0.80
2022-12-25T10:53:20.053Z,1.10
2022-12-25T10:55:59.354Z,0.97
2022-12-25T10:58:27.228Z,1.00
2022-12-25T11:01:00.028Z,1.13
2022-12-25T11:03:31.352Z,1.13
2022-12-25T11:06:00.080Z,1.10
2022-12-25T11:08:30.635Z,0.77
2022-12-25T11:11:05.991Z,1.20
2022-12-25T11:13:36.174Z,0.83
2022-12-25T11:16:09.428Z,1.00
2022-12-25T11:18:47.211Z,0.90
2022-12-25T11:21:20.088Z,0.90
2022-12-25T11:23:50.446Z,0.90
2022-12-25T11:26:19.547Z,0.83
2022-12-25T11:28:50.276Z,0.90
2022-12-25T11:31:21.595Z,1.00
2022-12-25T11:33:54.560Z,1.00
2022-12-25T11:36:30.832Z,1.23
2022-12-25T11:39:02.526Z,1.53
2022-12-25T11:41:35.209Z,1.30
2022-12-25T11:44:09.234Z,1.40
2022-12-25T11:46:42.480Z,1.43
2022-12-25T11:49:16.152Z,1.30
2022-12-25T11:51:47.609Z,1.07
2022-12-25T11:54:23.349Z,1.00
2022-12-25T11:56:51.390Z,0.90
2022-12-25T11:59:28.325Z,1.00
2022-12-25T12:02:01.216Z,1.00
2022-12-25T12:04:40.257Z,0.93
2022-12-25T12:07:18.175Z,1.00
2022-12-25T12:09:52.145Z,0.80
2022-12-25T12:12:27.170Z,1.10
2022-12-25T12:15:01.563Z,1.20
2022-12-25T12:17:31.035Z,1.10
2022-12-25T12:19:58.895Z,1.13
2022-12-25T12:22:29.348Z,1.20
2022-12-25T12:25:01.588Z,1.20
2022-12-25T12:27:35.843Z,1.30
2022-12-25T12:30:04.245Z,0.90
2022-12-25T12:32:46.132Z,1.10
2022-12-25T12:35:18.362Z,1.33
2022-12-25T12:37:48.359Z,1.10
2022-12-25T12:40:26.917Z,1.30
2022-12-25T12:42:54.949Z,1.00
2022-12-25T12:45:27.946Z,1.20
2022-12-25T12:47:57.737Z,0.80
2022-12-25T12:50:35.281Z,1.03
2022-12-25T12:53:29.480Z,0.80
2022-12-25T12:55:57.632Z,0.90
2022-12-25T12:58:30.949Z,1.00
2022-12-25T13:01:06.320Z,0.87
2022-12-25T13:03:46.756Z,0.93
2022-12-25T13:06:18.277Z,1.00
2022-12-25T13:08:57.676Z,1.03
2022-12-25T13:11:27.837Z,1.17
2022-12-25T13:13:58.488Z,0.80
2022-12-25T13:16:29.277Z,0.77
2022-12-25T13:18:59.402Z,0.77
2022-12-25T13:21:29.722Z,0.87
2022-12-25T13:24:00.076Z,0.83
2022-12-25T13:26:28.968Z,0.57
2022-12-25T13:28:57.106Z,0.90
2022-12-25T13:31:27.257Z,0.80
2022-12-25T13:34:00.475Z,0.80
2022-12-25T13:36:30.743Z,0.80
2022-12-25T13:39:00.308Z,0.70
2022-12-25T13:42:06.134Z,0.97
2022-12-25T13:44:43.552Z,1.10
2022-12-25T13:47:20.271Z,1.17
2022-12-25T13:49:51.230Z,1.17
2022-12-25T13:52:21.310Z,0.93
2022-12-25T13:55:00.568Z,1.53
2022-12-25T13:57:32.243Z,1.33
2022-12-25T14:00:00.809Z,1.27
2022-12-25T14:02:33.224Z,1.20
2022-12-25T14:05:02.792Z,1.00
2022-12-25T14:07:30.569Z,0.83
2022-12-25T14:10:01.273Z,1.20
2022-12-25T14:12:31.312Z,1.00
2022-12-25T14:15:00.177Z,1.00
2022-12-25T14:17:28.414Z,0.90
2022-12-25T14:20:07.940Z,0.80
2022-12-25T14:22:38.658Z,0.87
2022-12-25T14:25:16.002Z,0.80
2022-12-25T14:27:50.323Z,0.70
2022-12-25T14:30:18.635Z,1.20
2022-12-25T14:32:51.872Z,1.17
2022-12-25T14:35:23.619Z,0.90
2022-12-25T14:37:59.962Z,1.20
2022-12-25T14:40:31.406Z,1.20
2022-12-25T14:43:01.715Z,0.90
2022-12-25T14:45:33.084Z,1.20
2022-12-25T14:48:04.084Z,1.20
2022-12-25T14:50:36.453Z,1.30
2022-12-25T14:53:17.885Z,1.00
2022-12-25T14:55:49.093Z,1.00
2022-12-25T14:58:22.752Z,1.50
2022-12-25T15:00:56.194Z,1.60
2022-12-25T15:03:28.739Z,1.90
2022-12-25T15:06:01.321Z,2.27
2022-12-25T15:08:31.673Z,2.27
2022-12-25T15:11:02.277Z,2.30
2022-12-25T15:13:32.440Z,3.43
2022-12-25T15:16:04.964Z,2.90
2022-12-25T15:18:37.922Z,3.53
2022-12-25T15:21:06.021Z,2.37
2022-12-25T15:23:35.231Z,2.80
2022-12-25T15:26:03.065Z,3.10
2022-12-25T15:28:30.801Z,2.70
2022-12-25T15:30:58.660Z,3.20
2022-12-25T15:33:26.619Z,3.40
2022-12-25T15:35:54.402Z,3.20
2022-12-25T15:38:22.283Z,3.60
2022-12-25T15:40:51.453Z,3.03
2022-12-25T15:43:39.958Z,2.50
2022-12-25T15:46:06.967Z,3.20
2022-12-25T15:48:34.798Z,3.27
2022-12-25T15:51:03.077Z,3.77
2022-12-25T15:53:30.900Z,4.70
2022-12-25T15:56:00.110Z,3.60
2022-12-25T15:58:28.127Z,3.63
2022-12-25T16:00:55.919Z,6.80
2022-12-25T16:03:23.728Z,5.33
2022-12-25T16:05:51.518Z,5.47
2022-12-25T16:08:19.235Z,18.97
2022-12-25T16:10:47.233Z,10.60
2022-12-25T16:13:16.358Z,8.73
2022-12-25T16:15:45.069Z,7.13
2022-12-25T16:18:13.006Z,9.03
2022-12-25T16:20:40.772Z,8.93
2022-12-25T16:23:08.533Z,9.40
2022-12-25T16:25:36.298Z,8.50
2022-12-25T16:28:06.041Z,7.27
2022-12-25T16:30:35.399Z,8.17
2022-12-25T16:33:03.258Z,11.53
2022-12-25T16:35:31.656Z,8.70
2022-12-25T16:37:59.639Z,8.17
2022-12-25T16:40:27.734Z,7.17
2022-12-25T16:42:56.122Z,6.90
2022-12-25T16:45:24.165Z,7.70
2022-12-25T16:47:53.454Z,8.23
2022-12-25T16:50:22.356Z,8.23
2022-12-25T16:52:50.359Z,7.57
2022-12-25T16:55:18.288Z,6.20
2022-12-25T16:57:47.699Z,6.77
2022-12-25T17:00:16.462Z,14.87
2022-12-25T17:02:44.595Z,5.80
2022-12-25T17:05:13.977Z,5.47
2022-12-25T17:07:43.031Z,5.00
2022-12-25T17:10:12.075Z,4.87
2022-12-25T17:12:40.282Z,5.37
2022-12-25T17:15:09.463Z,5.10
2022-12-25T17:17:37.812Z,5.00
2022-12-25T17:20:07.195Z,5.40
2022-12-25T17:22:36.496Z,5.53
2022-12-25T17:25:04.496Z,5.20
2022-12-25T17:27:32.496Z,5.80
2022-12-25T17:30:00.398Z,5.83
2022-12-25T17:32:28.333Z,5.60
2022-12-25T17:34:56.224Z,6.70
2022-12-25T17:37:24.962Z,6.83
2022-12-25T17:39:54.094Z,6.10
2022-12-25T17:42:22.002Z,5.73
2022-12-25T17:44:49.745Z,5.63
2022-12-25T17:47:18.151Z,5.13
2022-12-25T17:49:45.978Z,13.40
2022-12-25T17:52:13.763Z,6.00
2022-12-25T17:54:41.652Z,6.13
2022-12-25T17:57:10.934Z,9.87
2022-12-25T17:59:38.723Z,16.37
2022-12-25T18:02:07.110Z,5.53
2022-12-25T18:04:35.064Z,4.53
2022-12-25T18:07:03.380Z,3.63
2022-12-25T18:09:31.308Z,3.63
2022-12-25T18:11:59.264Z,4.80
2022-12-25T18:14:28.854Z,3.10
2022-12-25T18:16:57.326Z,2.67
2022-12-25T18:19:25.577Z,2.90
2022-12-25T18:21:53.889Z,2.80
2022-12-25T18:24:21.822Z,2.40
2022-12-25T18:26:49.628Z,2.30
2022-12-25T18:29:18.626Z,2.50
2022-12-25T18:31:48.209Z,1.77
2022-12-25T18:34:16.944Z,1.70
2022-12-25T18:36:46.553Z,1.60
2022-12-25T18:39:14.689Z,1.80
2022-12-25T18:41:56.455Z,1.50
2022-12-25T18:44:24.240Z,2.63
2022-12-25T18:46:53.909Z,2.30
2022-12-25T18:49:22.060Z,2.80
2022-12-25T18:51:50.767Z,2.60
2022-12-25T18:54:19.335Z,2.40
2022-12-25T18:56:52.919Z,2.30
2022-12-25T18:59:21.788Z,2.47
2022-12-25T19:01:50.037Z,3.00
2022-12-25T19:04:19.534Z,2.90
2022-12-25T19:06:49.213Z,3.10
2022-12-25T19:09:17.637Z,2.73
2022-12-25T19:11:47.596Z,2.23
2022-12-25T19:14:16.170Z,2.50
2022-12-25T19:16:44.572Z,2.30
2022-12-25T19:19:13.033Z,2.20
2022-12-25T19:21:47.405Z,2.00
2022-12-25T19:24:15.275Z,3.47
2022-12-25T19:26:43.880Z,3.30
2022-12-25T19:29:12.639Z,2.30
2022-12-25T19:31:41.754Z,2.77
2022-12-25T19:34:11.472Z,3.30
2022-12-25T19:36:39.888Z,3.37
2022-12-25T19:39:11.651Z,2.73
2022-12-25T19:41:39.974Z,3.00
2022-12-25T19:44:10.724Z,3.60
2022-12-25T19:46:41.566Z,3.53
2022-12-25T19:49:16.132Z,2.97
2022-12-25T19:51:46.583Z,3.03
2022-12-25T19:54:18.864Z,2.60
2022-12-25T19:56:47.960Z,3.03
2022-12-25T19:59:16.692Z,2.87
2022-12-25T20:01:45.136Z,3.00
2022-12-25T20:04:13.441Z,3.00
2022-12-25T20:06:42.610Z,2.70
2022-12-25T20:09:13.023Z,2.80
2022-12-25T20:11:45.327Z,2.73
2022-12-25T20:14:16.114Z,2.43
2022-12-25T20:16:46.926Z,2.40
2022-12-25T20:19:15.878Z,2.70
2022-12-25T20:21:44.142Z,2.70
2022-12-25T20:24:12.419Z,2.30
2022-12-25T20:26:42.886Z,2.13
2022-12-25T20:29:12.615Z,2.40
2022-12-25T20:31:40.590Z,1.93
2022-12-25T20:34:12.716Z,2.00
2022-12-25T20:36:40.802Z,2.20
2022-12-25T20:39:13.143Z,1.77
2022-12-25T20:41:43.126Z,2.90
2022-12-25T20:44:13.230Z,3.40
2022-12-25T20:46:43.287Z,2.60
2022-12-25T20:49:11.348Z,2.60
2022-12-25T20:51:39.683Z,2.50
2022-12-25T20:54:13.097Z,2.40
2022-12-25T20:56:44.709Z,2.60
2022-12-25T20:59:12.682Z,2.20
2022-12-25T21:01:41.907Z,2.33
2022-12-25T21:04:14.553Z,2.40
2022-12-25T21:06:43.957Z,1.90
2022-12-25T21:09:11.919Z,2.53
2022-12-25T21:11:39.705Z,2.13
2022-12-25T21:14:09.533Z,3.93
2022-12-25T21:16:37.517Z,2.67
2022-12-25T21:19:05.380Z,2.00
2022-12-25T21:21:33.200Z,1.83
2022-12-25T21:24:01.000Z,4.23
2022-12-25T21:26:31.346Z,2.30
2022-12-25T21:29:02.131Z,2.07
2022-12-25T21:31:52.388Z,2.00
2022-12-25T21:34:19.285Z,2.10
2022-12-25T21:36:47.113Z,2.40
2022-12-25T21:39:15.549Z,2.17
2022-12-25T21:41:43.541Z,2.40
2022-12-25T21:44:12.201Z,1.90
2022-12-25T21:46:41.466Z,2.00
2022-12-25T21:49:10.427Z,2.33
2022-12-25T21:51:56.169Z,1.80
2022-12-25T21:54:24.436Z,1.80
2022-12-25T21:56:52.241Z,1.63
2022-12-25T21:59:22.562Z,1.93
2022-12-25T22:01:53.036Z,1.87
2022-12-25T22:04:22.840Z,1.90
2022-12-25T22:07:08.175Z,1.90
2022-12-25T22:09:36.131Z,1.90
2022-12-25T22:12:21.581Z,1.80
2022-12-25T22:14:57.100Z,1.73
2022-12-25T22:17:45.354Z,2.10
2022-12-25T22:20:15.492Z,1.63
2022-12-25T22:22:43.707Z,1.70
2022-12-25T22:25:12.267Z,1.73
2022-12-25T22:27:41.805Z,2.10
2022-12-25T22:30:13.456Z,1.87
2022-12-25T22:32:42.977Z,1.80
2022-12-25T22:35:12.377Z,1.63
2022-12-25T22:37:40.868Z,1.80
2022-12-25T22:40:11.378Z,1.77
2022-12-25T22:42:39.245Z,1.50
2022-12-25T22:45:07.903Z,1.90
2022-12-25T22:47:35.960Z,1.90
2022-12-25T22:50:05.700Z,1.77
2022-12-25T22:52:33.647Z,1.90
2022-12-25T22:55:02.491Z,1.90
2022-12-25T22:57:30.395Z,2.03
2022-12-25T22:59:58.293Z,1.60
2022-12-25T23:02:26.276Z,1.77
2022-12-25T23:04:54.232Z,1.70
2022-12-25T23:07:23.517Z,1.80
2022-12-25T23:09:53.213Z,1.90
2022-12-25T23:12:38.493Z,2.00
2022-12-25T23:15:07.561Z,1.63
2022-12-25T23:17:52.877Z,1.77
2022-12-25T23:20:38.702Z,2.03
2022-12-25T23:23:25.725Z,1.80
2022-12-25T23:26:08.740Z,1.83
2022-12-25T23:28:54.709Z,1.80
2022-12-25T23:31:26.390Z,1.90
2022-12-25T23:33:54.275Z,1.70
2022-12-25T23:36:22.401Z,1.63
2022-12-25T23:38:52.520Z,2.00
2022-12-25T23:41:20.390Z,1.87
2022-12-25T23:43:48.244Z,1.70
2022-12-25T23:46:16.415Z,1.83
2022-12-25T23:48:44.312Z,2.13
2022-12-25T23:51:12.275Z,1.90
2022-12-25T23:53:40.099Z,1.60
2022-12-25T23:56:10.552Z,1.83
2022-12-25T23:58:38.629Z,1.70
